Witless Bay, Canada
Current Conditions -  °F | °C
As of 3:00 PM on Thursday 30 Oct 2014 (Local Time) from CYYT Reporting Station
Overcast Overcast  
Wind Chill: 61°   Ceiling: 900
Heat Index: 61°   Visibility: 10mi
Dew Point: 59°   Wind: 24mph
Humidity: 94%   Direction: 240°WSW
Pressure: 29.7"   Gusts: 37mph
Location:  47.28°N, 52.83°W
Report Text: CYYT 301700Z 24021G32KT 10SM OVC009 16/15 A2970 RMK SC8 SLP060 DENSITY ALT 900FT
Loading
Personal Weather Stations






























Interactive Weather Map
Tropical Storm Tracking
New forecast layout! Learn more

10-Day Weather Forecast

Advertisements
Track Severe Weather on mobile